Wyncote, Pennsylvania
Current Conditions -  °F | °C
As of 1:35 AM on Saturday 01 Nov 2014 (Local Time) from KLOM Reporting Station
Overcast Overcast  
Wind Chill: 50°   Ceiling: 1700
Heat Index: 50°   Visibility: 10mi
Dew Point: 43°   Wind: 3mph
Humidity: 76%   Direction: 20°NNE
Pressure: 29.8"   Gusts: NA
Location:  40.09°N, 75.15°W
Report Text: KLOM 010535Z AUTO 02003KT 10SM OVC017 10/06 A2980 RMK AO1
Loading
Personal Weather Stations






























Interactive Weather Map
Tropical Storm Tracking
New forecast layout! Learn more

10-Day Weather Forecast

Advertisements
Track Severe Weather on mobile